ロサンゼルス の空港の天気 - METARとTAF

ロサンゼルス国際空港 ( KLAX / LAX ) - アメリカ カリフォルニア州ロサンゼルス
飛行場実況気象(Metar)
観測時間05/14 18:53 PDT (05/15 01:53 UTC)
風向・風速西南西 5m/s
視程10km以上
天気現象
全天の8割程度の雲 雲底高度 490m
気温15.6℃
湿度72%
気圧1013.7hPa
METARKLAX 150153Z 25009KT 10SM BKN016 16/11 A2994 RMK AO2 SLP137 T01560106
過去の天気等 Google飛行場航空写真 Wunderground天気予報

過去48時間のMETAR

飛行場予報(TAF)
発表時間: 5/14 17:31 PDT (5/15 00:31 UTC)
予報対象時間: 14日18時 PDT ~ 15日23時 PDT
風向・風速西南西 8m/s
視程10km以上
全天の8割程度の雲 雲底高度 490m
14日19時 PDT から
風向・風速西 4m/s
視程10km以上
全天を覆う雲 雲底高度 460m
15日4時 PDT から
風向・風速不定 2m/s
視程10km以上
全天を覆う雲 雲底高度 270m
15日10時 PDT から
風向・風速南西 4m/s
視程10km以上
全天を覆う雲 雲底高度 550m
15日14時 PDT から
風向・風速西 6m/s
視程10km以上
全天の4割程度の雲 雲底高度 760m
15日19時 PDT から
風向・風速西 5m/s
視程10km以上
全天を覆う雲 雲底高度 460m
KLAX 150031Z 1501/1606 24015KT P6SM BKN016
FM150200 26008KT P6SM OVC015
FM151100 VRB03KT P6SM OVC009
FM151700 23007KT P6SM OVC018
FM152100 26012KT P6SM SCT025
FM160200 26009KT P6SM OVC015